PORTS® Data Listing: 8454049 Quonset Point, RI

CO-OPS RAW PORTS DATA

************************      PRELIMINARY DATA      ************************** 

     THIS RAW DATA HAS NOT BEEN SUBJECT TO THE NATIONAL OCEAN SERVICE'S        
     QUALITY CONTROL OR QUALITY ASSURANCE PROCEDURES AND DOES NOT MEET         
     THE CRITERIA AND STANDARDS OF OFFICIAL NATIONAL OCEAN SERVICE             
     DATA.  IT IS RELEASED FOR LIMITED PUBLIC USE AS PRELIMINARY DATA TO       
     BE USED ONLY WITH APPROPRIATE CAUTION.                                    

************************      PRELIMINARY DATA      ************************** 


       CD   -   Calendar date
       T    -   Time
       TZ   -   Timezone
       PW   -   Predicted water level (feet above MLLW)
       OW   -   Observed water level (feet above MLLW)
       WS   -   Wind speed (knots)
       WD   -   Wind direction (degrees true)
       WG   -   Wind gust (knots)
       AT   -   Air temperature (degrees farenheit)
       WT   -   Water temperature (degrees farenheit)
       AP   -   Air pressure (millibars)
       SA   -   Salinty (PSU - Practical Salinity Units)
       SG   -   Specific gravity
       RH   -   Relative humidity
       AG   -   Air gap (feet)
       VI   -   Visibility (nautical miles)

       ** NOTE **
       A variable that has its data fields filled with "9"s, indicates that
       data was not collected for that sample period.
       **********


STATION NAME: Quonset Point (8454049)
****************************************************************************************************
    CD       T    TZ    PW     OW    WS   WD   WG    AT    WT    AP    SA    SG     RH    AG   VI
****************************************************************************************************
2019/11/17 07:18 EST    1.83   2.17   16   20   18  31.1  45.1 1030.0 27.4  1.022 -99.9 -99.99 -9.99
2019/11/17 07:24 EST    1.89   2.23   15   12   17  30.6  45.1 1029.9 27.4  1.022 -99.9 -99.99 -9.99
2019/11/17 07:30 EST    1.95   2.34   13   11   19  31.1  45.0 1029.9 27.5  1.022 -99.9 -99.99 -9.99
2019/11/17 07:36 EST    2.01   2.46   14    8   17  30.9  45.0 1029.9 27.4  1.022 -99.9 -99.99 -9.99
2019/11/17 07:42 EST    2.07   2.55   15    5   17  30.7  45.0 1030.0 27.4  1.022 -99.9 -99.99 -9.99
2019/11/17 07:48 EST    2.13   2.62   13    9   16  31.1  44.6 1030.0 27.5  1.022 -99.9 -99.99 -9.99
2019/11/17 07:54 EST    2.20   2.75   11  359   14  30.9  44.6 1029.9 27.4  1.022 -99.9 -99.99 -9.99
2019/11/17 08:00 EST    2.26   2.84   11  355   13  30.7  44.4 1030.0 27.5  1.022 -99.9 -99.99 -9.99
2019/11/17 08:06 EST    2.33   2.94   10  356   13  30.7  44.6 1030.0 27.4  1.022 -99.9 -99.99 -9.99
2019/11/17 08:12 EST    2.39   3.04   11  358   13  30.6  44.4 1030.1 27.5  1.022 -99.9 -99.99 -9.99
2019/11/17 08:18 EST    2.46   3.11   10  352   14  30.9  44.6 1030.2 27.4  1.022 -99.9 -99.99 -9.99
2019/11/17 08:24 EST    2.53   3.17   10  351   13  31.1  45.0 1030.2 27.4  1.022 -99.9 -99.99 -9.99
2019/11/17 08:30 EST    2.60   3.25   10  347   13  30.9  44.6 1030.2 27.4  1.022 -99.9 -99.99 -9.99
2019/11/17 08:36 EST    2.67   3.33   11  344   12  31.1  44.4 1030.1 27.4  1.022 -99.9 -99.99 -9.99
2019/11/17 08:42 EST    2.74   3.43   10  351   13  31.5  44.4 1030.1 27.5  1.022 -99.9 -99.99 -9.99
2019/11/17 08:48 EST    2.81   3.55   10  356   14  31.5  45.0 1030.1 27.4  1.022 -99.9 -99.99 -9.99
2019/11/17 08:54 EST    2.89   3.64   10  353   13  31.8  45.0 1030.2 27.4  1.022 -99.9 -99.99 -9.99
2019/11/17 09:00 EST    2.96   3.69   11  354   14  32.0  45.1 1030.2 27.4  1.022 -99.9 -99.99 -9.99
2019/11/17 09:06 EST    3.03   3.79   11    0   15  32.5  45.1 1030.3 27.4  1.022 -99.9 -99.99 -9.99
2019/11/17 09:12 EST    3.10   3.90   11  353   13  32.2  45.1 1030.2 27.4  1.022 -99.9 -99.99 -9.99
2019/11/17 09:18 EST    3.17   4.00   12  359   14  32.2  45.3 1030.2 27.4  1.022 -99.9 -99.99 -9.99
2019/11/17 09:24 EST    3.24   4.09   11  352   14  32.5  45.1 1030.1 27.4  1.022 -99.9 -99.99 -9.99
2019/11/17 09:30 EST    3.31   4.18   13  351   15  32.4  45.1 1029.9 27.4  1.022 -99.9 -99.99 -9.99
2019/11/17 09:36 EST    3.38   4.25   13  354   15  32.7  45.1 1029.8 27.4  1.022 -99.9 -99.99 -9.99
2019/11/17 09:42 EST    3.44   4.33   12  356   14  32.9  45.1 1029.7 27.4  1.022 -99.9 -99.99 -9.99
2019/11/17 09:48 EST    3.51   4.40   12  359   15  33.3  45.1 1029.6 27.4  1.022 -99.9 -99.99 -9.99
2019/11/17 09:54 EST    3.57   4.45   11  352   16  33.3  45.1 1029.6 27.4  1.022 -99.9 -99.99 -9.99
2019/11/17 10:00 EST    3.62   4.48   11  356   14  33.8  45.1 1029.6 27.4  1.022 -99.9 -99.99 -9.99
2019/11/17 10:06 EST    3.67   4.51   11  357   15  33.6  45.1 1029.5 27.4  1.022 -99.9 -99.99 -9.99
2019/11/17 10:12 EST    3.72   4.54   10  351   14  33.8  45.0 1029.4 27.5  1.022 -99.9 -99.99 -9.99
2019/11/17 10:18 EST    3.76   4.62   11  354   13  33.6  45.0 1029.2 27.4  1.022 -99.9 -99.99 -9.99
2019/11/17 10:24 EST    3.80   4.66   11  354   13  33.8  45.0 1029.1 27.4  1.022 -99.9 -99.99 -9.99
2019/11/17 10:30 EST    3.83   4.68   11  357   14  34.0  45.0 1029.1 27.5  1.022 -99.9 -99.99 -9.99
2019/11/17 10:36 EST    3.86   4.68   10  348   14  34.2  45.1 1028.8 27.4  1.022 -99.9 -99.99 -9.99
2019/11/17 10:42 EST    3.88   4.67   11  347   15  34.0  45.1 1028.6 27.4  1.022 -99.9 -99.99 -9.99
2019/11/17 10:48 EST    3.90   4.68   11  351   14  34.5  45.1 1028.5 27.4  1.022 -99.9 -99.99 -9.99
2019/11/17 10:54 EST    3.91   4.69   11  350   16  34.5  45.3 1028.5 27.4  1.022 -99.9 -99.99 -9.99
2019/11/17 11:00 EST    3.92   4.69   12  356   14  35.2  45.5 1028.5 27.3  1.022 -99.9 -99.99 -9.99
2019/11/17 11:06 EST    3.91   4.68   13  352   16  35.2  45.5 1028.4 27.3  1.022 -99.9 -99.99 -9.99
2019/11/17 11:12 EST    3.90   4.64   11  351   15  35.2  45.5 1028.3 27.4  1.022 -99.9 -99.99 -9.99
2019/11/17 11:18 EST    3.89   4.59   11  345   14  35.2  45.5 1028.1 27.4  1.022 -99.9 -99.99 -9.99
2019/11/17 11:24 EST    3.87   4.56   11  349   14  35.6  45.3 1028.0 27.4  1.022 -99.9 -99.99 -9.99
2019/11/17 11:30 EST    3.84   4.55   12  345   14  35.8  45.3 1027.9 27.4  1.022 -99.9 -99.99 -9.99
2019/11/17 11:36 EST    3.81   4.56   11  346   15  36.0  45.0 1027.8 27.4  1.022 -99.9 -99.99 -9.99
2019/11/17 11:42 EST    3.77   4.51   11  347   14  36.1  44.8 1027.6 27.4  1.022 -99.9 -99.99 -9.99
2019/11/17 11:48 EST    3.72   4.45   11  350   16  36.3  44.8 1027.6 27.4  1.022 -99.9 -99.99 -9.99
2019/11/17 11:54 EST    3.67   4.37   11  346   14  36.3  44.8 1027.4 27.3  1.022 -99.9 -99.99 -9.99
2019/11/17 12:00 EST    3.61   4.31   10  354   16  36.5  45.0 1027.3 27.2  1.022 -99.9 -99.99 -9.99
2019/11/17 12:06 EST    3.55   4.27   11  357   14  36.7  45.0 1027.3 27.2  1.022 -99.9 -99.99 -9.99
2019/11/17 12:12 EST    3.48   4.19   11    3   14  37.4  44.8 1027.1 27.3  1.022 -99.9 -99.99 -9.99
2019/11/17 12:18 EST    3.41   4.12   12    2   16  37.4  44.8 1027.0 27.2  1.022 -99.9 -99.99 -9.99
2019/11/17 12:24 EST    3.33   4.05   12  355   15  37.4  44.8 1026.8 27.2  1.022 -99.9 -99.99 -9.99
2019/11/17 12:30 EST    3.25   3.93   14  357   18  37.4  45.0 1026.8 27.2  1.022 -99.9 -99.99 -9.99
2019/11/17 12:36 EST    3.17   3.84   11  359   15  37.6  44.8 1026.7 27.3  1.022 -99.9 -99.99 -9.99
2019/11/17 12:42 EST    3.08   3.76   12  356   14  37.8  45.0 1026.6 27.2  1.022 -99.9 -99.99 -9.99
2019/11/17 12:48 EST    2.99   3.68   12  358   15  37.9  44.8 1026.5 27.3  1.022 -99.9 -99.99 -9.99
2019/11/17 12:54 EST    2.89   3.60   12    1   17  38.1  44.8 1026.4 27.3  1.022 -99.9 -99.99 -9.99
2019/11/17 13:00 EST    2.79   3.49   13    7   16  38.1  45.0 1026.3 27.2  1.022 -99.9 -99.99 -9.99
2019/11/17 13:06 EST    2.69   3.38   14  358   16  37.9  45.0 1026.1 27.2  1.022 -99.9 -99.99 -9.99
2019/11/17 13:12 EST    2.59   3.30   13  355   16  38.1  45.0 1026.1 27.2  1.022 -99.9 -99.99 -9.99
2019/11/17 13:18 EST    2.49   3.22   13  357   16  38.3  45.0 1025.9 27.2  1.022 -99.9 -99.99 -9.99
2019/11/17 13:24 EST    2.38   3.09   12  356   15  38.7  45.0 1025.7 27.2  1.022 -99.9 -99.99 -9.99
2019/11/17 13:30 EST    2.28   2.99   10  351   15  38.7  45.0 1025.8 27.3  1.022 -99.9 -99.99 -9.99
2019/11/17 13:36 EST    2.17   2.88   12  353   15  38.8  45.0 1025.7 27.3  1.022 -99.9 -99.99 -9.99
2019/11/17 13:42 EST    2.07   2.79   12  347   16  38.7  45.0 1025.6 27.3  1.022 -99.9 -99.99 -9.99
2019/11/17 13:48 EST    1.96   2.67   11  354   15  38.8  45.1 1025.5 27.2  1.022 -99.9 -99.99 -9.99
2019/11/17 13:54 EST    1.86   2.56   11  349   15  38.7  45.1 1025.4 27.2  1.022 -99.9 -99.99 -9.99
2019/11/17 14:00 EST    1.75   2.44   12  347   15  38.5  45.0 1025.3 27.3  1.022 -99.9 -99.99 -9.99
2019/11/17 14:06 EST    1.65   2.30   11  349   14  38.7  45.0 1025.2 27.3  1.022 -99.9 -99.99 -9.99
2019/11/17 14:12 EST    1.55   2.17   13  347   15  38.3  45.0 1025.2 27.3  1.022 -99.9 -99.99 -9.99
2019/11/17 14:18 EST    1.45   2.10   14  352   17  38.3  45.0 1025.2 27.3  1.022 -99.9 -99.99 -9.99
2019/11/17 14:24 EST    1.36   2.02   12  356   17  38.5  45.0 1025.1 27.3  1.022 -99.9 -99.99 -9.99
2019/11/17 14:30 EST    1.27   1.93   13  351   17  38.3  45.1 1025.0 27.2  1.022 -99.9 -99.99 -9.99
2019/11/17 14:36 EST    1.18   1.83   13  356   16  38.3  45.1 1025.0 27.2  1.022 -99.9 -99.99 -9.99
2019/11/17 14:42 EST    1.09   1.74   12  349   15  38.5  45.0 1025.0 27.3  1.022 -99.9 -99.99 -9.99
2019/11/17 14:48 EST    1.01   1.68   11  360   13  38.8  45.0 1024.9 27.3  1.022 -99.9 -99.99 -9.99
2019/11/17 14:54 EST    0.93   1.62   13  355   16  38.7  45.1 1024.9 27.3  1.022 -99.9 -99.99 -9.99
2019/11/17 15:00 EST    0.85   1.56   11  356   15  38.8  45.1 1024.8 27.3  1.022 -99.9 -99.99 -9.99
2019/11/17 15:06 EST    0.78   1.47   12  355   15  38.7  45.1 1024.8 27.4  1.022 -99.9 -99.99 -9.99
2019/11/17 15:12 EST    0.72   1.40   13  351   17  38.3  45.3 1024.7 27.3  1.022 -99.9 -99.99 -9.99
2019/11/17 15:18 EST    0.66   1.37   11  352   16  38.3  45.0 1024.6 27.4  1.022 -99.9 -99.99 -9.99
2019/11/17 15:24 EST    0.60   1.31   11  354   16  38.3  45.0 1024.6 27.4  1.022 -99.9 -99.99 -9.99
2019/11/17 15:30 EST    0.55   1.28   12  355   19  38.3  45.0 1024.6 27.3  1.022 -99.9 -99.99 -9.99
2019/11/17 15:36 EST    0.50   1.25   13  352   16  38.1  44.8 1024.6 27.4  1.022 -99.9 -99.99 -9.99
2019/11/17 15:42 EST    0.46   1.23   14  356   17  38.1  44.8 1024.5 27.4  1.022 -99.9 -99.99 -9.99
2019/11/17 15:48 EST    0.42   1.21   11    1   14  38.1  44.8 1024.5 27.3  1.022 -99.9 -99.99 -9.99
2019/11/17 15:54 EST    0.39   1.20   11  357   15  38.3  44.8 1024.5 27.3  1.022 -99.9 -99.99 -9.99
2019/11/17 16:00 EST    0.36   1.20   13  356   17  38.1  45.0 1024.4 27.2  1.022 -99.9 -99.99 -9.99
2019/11/17 16:06 EST    0.34   1.21   10  360   17  38.5  44.8 1024.3 27.3  1.022 -99.9 -99.99 -9.99
2019/11/17 16:12 EST    0.32   1.18   12    5   16  38.8  44.8 1024.2 27.3  1.022 -99.9 -99.99 -9.99
2019/11/17 16:18 EST    0.31   1.16   14    8   16  39.4  44.8 1024.2 27.3  1.022 -99.9 -99.99 -9.99
2019/11/17 16:24 EST    0.30   1.16   14    4   17  39.4  44.6 1024.1 27.3  1.022 -99.9 -99.99 -9.99
2019/11/17 16:30 EST    0.29   1.17   14    9   18  39.2  44.4 1024.0 27.4  1.022 -99.9 -99.99 -9.99
2019/11/17 16:36 EST    0.29   1.16   14    6   16  39.2  44.4 1023.8 27.4  1.022 -99.9 -99.99 -9.99
2019/11/17 16:42 EST    0.29   1.19   13    6   17  39.6  44.4 1023.8 27.4  1.022 -99.9 -99.99 -9.99
2019/11/17 16:48 EST    0.30   1.23   15    7   18  39.4  44.6 1023.7 27.3  1.022 -99.9 -99.99 -9.99
2019/11/17 16:54 EST    0.31   1.23   14   26   17  40.3  44.8 1023.7 27.3  1.022 -99.9 -99.99 -9.99
2019/11/17 17:00 EST    0.32   1.27   14   24   17  40.1  45.0 1023.6 27.2  1.022 -99.9 -99.99 -9.99
2019/11/17 17:06 EST    0.34   1.25   14   10   17  39.7  45.0 1023.5 27.2  1.022 -99.9 -99.99 -9.99
2019/11/17 17:12 EST    0.36   1.27   14   19   16  40.1  45.0 1023.4 27.2  1.022 -99.9 -99.99 -9.99
2019/11/17 17:18 EST    0.38   1.31   14   30   19  40.3  45.0 1023.3 27.2  1.022 -99.9 -99.99 -9.99
2019/11/17 17:24 EST    0.40   1.33   14   18   18  40.1  45.0 1023.3 27.2  1.022 -99.9 -99.99 -9.99
2019/11/17 17:30 EST    0.42   1.35   14   14   18  39.7  45.0 1023.2 27.2  1.022 -99.9 -99.99 -9.99
2019/11/17 17:36 EST    0.45   1.36   15   17   18  40.1  45.0 1023.1 27.2  1.022 -99.9 -99.99 -9.99
2019/11/17 17:42 EST    0.48   1.39   16   35   19  41.0  45.0 1023.0 27.2  1.022 -99.9 -99.99 -9.99
2019/11/17 17:48 EST    0.50   1.44   16   22   21  40.5  45.0 1022.9 27.2  1.022 -99.9 -99.99 -9.99
2019/11/17 17:54 EST    0.53   1.45   14   21   18  40.5  44.8 1022.9 27.2  1.022 -99.9 -99.99 -9.99
2019/11/17 18:00 EST    0.56   1.47   14   19   17  40.3  44.8 1022.8 27.2  1.022 -99.9 -99.99 -9.99
2019/11/17 18:06 EST    0.59   1.51   14   16   17  40.1  44.6 1022.8 27.3  1.022 -99.9 -99.99 -9.99
2019/11/17 18:12 EST    0.62   1.53   15   20   17  40.3  44.6 1022.7 27.3  1.022 -99.9 -99.99 -9.99
2019/11/17 18:18 EST    0.65   1.55   15   21   17  40.3  44.6 1022.6 27.3  1.022 -99.9 -99.99 -9.99
2019/11/17 18:24 EST    0.68   1.53   13   13   18  40.3  44.6 1022.5 27.2  1.022 -99.9 -99.99 -9.99
2019/11/17 18:30 EST    0.71   1.56   16   20   18  40.1  44.6 1022.4 27.2  1.022 -99.9 -99.99 -9.99
2019/11/17 18:36 EST    0.74   1.61   14   18   18  40.1  44.4 1022.3 27.1  1.022 -99.9 -99.99 -9.99
2019/11/17 18:42 EST    0.77   1.62   15   18   17  40.1  44.4 1022.3 27.3  1.022 -99.9 -99.99 -9.99
2019/11/17 18:48 EST    0.80   1.64   14   19   17  40.1  44.4 1022.2 27.3  1.022 -99.9 -99.99 -9.99
2019/11/17 18:54 EST    0.83   1.64   13   16   17  40.5  44.4 1022.2 27.3  1.022 -99.9 -99.99 -9.99
2019/11/17 19:00 EST    0.86   1.68   17   34   22  42.1  44.4 1022.1 27.3  1.022 -99.9 -99.99 -9.99
2019/11/17 19:06 EST    0.89   1.69   18   34   21  42.1  44.4 1021.9 27.4  1.022 -99.9 -99.99 -9.99
2019/11/17 19:12 EST    0.92   1.75   18   28   23  42.1  44.4 1021.7 27.3  1.022 -99.9 -99.99 -9.99
2019/11/17 19:18 EST    0.95   1.82   19   26   22  41.9  44.4 1021.7 27.3  1.022 -99.9 -99.99 -9.99
2019/11/17 19:24 EST    0.99   1.86   17   17   22  41.0  44.4 1021.7 27.3  1.022 -99.9 -99.99 -9.99
2019/11/17 19:30 EST    1.02   1.89   15   14   21  40.5  44.2 1021.5 27.4  1.022 -99.9 -99.99 -9.99
2019/11/17 19:36 EST    1.06   1.94   15   14   17  40.5  44.2 1021.6 27.4  1.022 -99.9 -99.99 -9.99
2019/11/17 19:42 EST    1.10   2.00   13   12   22  40.5  44.2 1021.6 27.4  1.022 -99.9 -99.99 -9.99
2019/11/17 19:48 EST    1.14   2.03   16   26   20  41.5  44.2 1021.5 27.3  1.022 -99.9 -99.99 -9.99
2019/11/17 19:54 EST    1.18   2.09   17   28   20  41.9  44.2 1021.3 27.4  1.022 -99.9 -99.99 -9.99
2019/11/17 20:00 EST    1.22   2.16   16   24   18  41.9  44.2 1021.2 27.3  1.022 -99.9 -99.99 -9.99
2019/11/17 20:06 EST    1.27   2.22   19   28   22  42.1  44.2 1021.0 27.3  1.022 -99.9 -99.99 -9.99
2019/11/17 20:12 EST    1.32   2.30   14   13   20  41.4  44.2 1020.9 27.3  1.022 -99.9 -99.99 -9.99
2019/11/17 20:18 EST    1.38   2.41   15   21   20  42.1  44.2 1020.7 27.3  1.022 -99.9 -99.99 -9.99
2019/11/17 20:24 EST    1.43   2.47   16   27   22  41.9  44.4 1020.6 27.3  1.022 -99.9 -99.99 -9.99
2019/11/17 20:30 EST    1.49   2.53   14    9   19  41.2  44.4 1020.5 27.3  1.022 -99.9 -99.99 -9.99
2019/11/17 20:36 EST    1.55   2.61   16   21   20  42.1  44.2 1020.4 27.3  1.022 -99.9 -99.99 -9.99
2019/11/17 20:42 EST    1.62   2.68   17   24   21  42.6  44.4 1020.2 27.3  1.022 -99.9 -99.99 -9.99
2019/11/17 20:48 EST    1.68   2.74   18   25   21  42.6  44.2 1020.0 27.3  1.022 -99.9 -99.99 -9.99
2019/11/17 20:54 EST    1.75   2.81   18   24   21  42.4  44.4 1019.8 27.3  1.022 -99.9 -99.99 -9.99
2019/11/17 21:00 EST    1.83   2.93   17   18   22  42.4  44.4 1019.9 27.3  1.022 -99.9 -99.99 -9.99
2019/11/17 21:06 EST    1.90   3.07   17   22   22  42.4  44.6 1019.8 27.2  1.022 -99.9 -99.99 -9.99
2019/11/17 21:12 EST    1.98   3.12   11  358   22  40.1  44.4 1019.7 27.3  1.022 -99.9 -99.99 -9.99
2019/11/17 21:18 EST    2.06   3.24   11  357   17  40.1  44.4 1019.5 27.3  1.022 -99.9 -99.99 -9.99
2019/11/17 21:24 EST    2.14   3.35   13    3   15  40.3  44.4 1019.4 27.3  1.022 -99.9 -99.99 -9.99
2019/11/17 21:30 EST    2.22   3.45   12  359   16  40.3  44.4 1019.4 27.3  1.022 -99.9 -99.99 -9.99
2019/11/17 21:36 EST    2.30   3.55   13  359   16  40.1  44.4 1019.3 27.3  1.022 -99.9 -99.99 -9.99
2019/11/17 21:42 EST    2.39   3.62   13    0   16  40.1  44.6 1019.3 27.3  1.022 -99.9 -99.99 -9.99
2019/11/17 21:48 EST    2.47   3.71   13  359   15  40.3  44.8 1019.2 27.2  1.022 -99.9 -99.99 -9.99
2019/11/17 21:54 EST    2.55   3.78   12    1   16  40.3  44.8 1019.2 27.2  1.022 -99.9 -99.99 -9.99
2019/11/17 22:00 EST    2.63   3.89   13    2   17  40.3  44.8 1019.1 27.2  1.022 -99.9 -99.99 -9.99
2019/11/17 22:06 EST    2.71   4.00   12    2   15  40.5  44.8 1019.2 27.2  1.022 -99.9 -99.99 -9.99
2019/11/17 22:12 EST    2.79   4.07   12  356   15  40.3  44.8 1019.1 27.2  1.022 -99.9 -99.99 -9.99
2019/11/17 22:18 EST    2.87   4.14   13  359   16  40.3  44.8 1018.9 27.2  1.022 -99.9 -99.99 -9.99
2019/11/17 22:24 EST    2.94   4.20   12  358   16  40.1  44.8 1018.7 27.2  1.022 -99.9 -99.99 -9.99
2019/11/17 22:30 EST    3.01   4.28   12  359   16  40.1  44.8 1018.6 27.3  1.022 -99.9 -99.99 -9.99
2019/11/17 22:36 EST    3.07   4.35   12    1   15  40.3  44.8 1018.5 27.3  1.022 -99.9 -99.99 -9.99
2019/11/17 22:42 EST    3.13   4.38   12  355   15  40.1  44.6 1018.5 27.3  1.022 -99.9 -99.99 -9.99
2019/11/17 22:48 EST    3.19   4.46   11  357   14  40.1  44.6 1018.4 27.3  1.022 -99.9 -99.99 -9.99
2019/11/17 22:54 EST    3.24   4.50   12  353   15  39.9  44.8 1018.3 27.3  1.022 -99.9 -99.99 -9.99
2019/11/17 23:00 EST    3.29   4.51   11  356   14  39.7  44.6 1018.1 27.3  1.022 -99.9 -99.99 -9.99
2019/11/17 23:06 EST    3.33   4.53   12  355   15  39.9  44.6 1018.0 27.3  1.022 -99.9 -99.99 -9.99
2019/11/17 23:12 EST    3.36   4.61   12  357   16  39.9  44.6 1017.9 27.3  1.022 -99.9 -99.99 -9.99
2019/11/17 23:18 EST    3.39   4.62   12  357   15  39.9  44.8 1017.8 27.3  1.022 -99.9 -99.99 -9.99
2019/11/17 23:24 EST    3.41   4.56   13  359   16  39.9  45.0 1017.6 27.2  1.022 -99.9 -99.99 -9.99
2019/11/17 23:30 EST    3.42   4.57   12  356   16  40.1  45.0 1017.6 27.2  1.022 -99.9 -99.99 -9.99
2019/11/17 23:36 EST    3.43   4.57   12  357   14  40.3  45.0 1017.5 27.2  1.022 -99.9 -99.99 -9.99
2019/11/17 23:42 EST    3.43   4.58   12  356   16  40.3  45.0 1017.5 27.2  1.022 -99.9 -99.99 -9.99
2019/11/17 23:48 EST    3.42   4.54   12  356   15  40.3  45.1 1017.4 27.2  1.022 -99.9 -99.99 -9.99
2019/11/17 23:54 EST    3.40   4.53   12  356   16  40.3  45.3 1017.2 27.1  1.022 -99.9 -99.99 -9.99
2019/11/18 00:00 EST    3.38   4.50   12  354   16  40.3  45.3 1017.2 27.2  1.022 -99.9 -99.99 -9.99
2019/11/18 00:06 EST    3.35   4.46   13  353   17  40.3  45.1 1017.1 27.3  1.022 -99.9 -99.99 -9.99
2019/11/18 00:12 EST    3.32   4.40   12  356   15  40.5  44.8 1017.0 27.3  1.022 -99.9 -99.99 -9.99
2019/11/18 00:18 EST    3.27   4.37   12  358   15  40.5  44.8 1017.0 27.1  1.022 -99.9 -99.99 -9.99
2019/11/18 00:24 EST    3.23   4.32   12  353   16  40.5  44.8 1016.9 27.1  1.022 -99.9 -99.99 -9.99
2019/11/18 00:30 EST    3.17   4.24   12  356   16  40.3  44.8 1016.9 27.1  1.022 -99.9 -99.99 -9.99
2019/11/18 00:36 EST    3.11   4.15   12  353   15  40.1  44.8 1016.7 27.0  1.022 -99.9 -99.99 -9.99
2019/11/18 00:42 EST    3.04   4.08   12  350   14  39.4  44.6 1016.6 27.1  1.022 -99.9 -99.99 -9.99
2019/11/18 00:48 EST    2.97   4.00   12  348   15  39.0  44.6 1016.4 27.1  1.022 -99.9 -99.99 -9.99
2019/11/18 00:54 EST    2.89   3.94   12  350   17  39.0  44.6 1016.3 27.1  1.022 -99.9 -99.99 -9.99
2019/11/18 01:00 EST    2.81   3.85   11  346   14  38.8  44.6 1016.3 27.1  1.022 -99.9 -99.99 -9.99
2019/11/18 01:06 EST    2.73 -99.99 -999 -999 -999 -99.9 -99.9 -999.9 -9.9 -9.999 -99.9 -99.99 -9.99
2019/11/18 01:12 EST    2.64 -99.99 -999 -999 -999 -99.9 -99.9 -999.9 -9.9 -9.999 -99.9 -99.99 -9.99
2019/11/18 01:18 EST    2.54 -99.99 -999 -999 -999 -99.9 -99.9 -999.9 -9.9 -9.999 -99.9 -99.99 -9.99
2019/11/18 01:24 EST    2.45 -99.99 -999 -999 -999 -99.9 -99.9 -999.9 -9.9 -9.999 -99.9 -99.99 -9.99
2019/11/18 01:30 EST    2.35 -99.99 -999 -999 -999 -99.9 -99.9 -999.9 -9.9 -9.999 -99.9 -99.99 -9.99
2019/11/18 01:36 EST    2.24 -99.99 -999 -999 -999 -99.9 -99.9 -999.9 -9.9 -9.999 -99.9 -99.99 -9.99
2019/11/18 01:42 EST    2.14 -99.99 -999 -999 -999 -99.9 -99.9 -999.9 -9.9 -9.999 -99.9 -99.99 -9.99
2019/11/18 01:48 EST    2.04 -99.99 -999 -999 -999 -99.9 -99.9 -999.9 -9.9 -9.999 -99.9 -99.99 -9.99
2019/11/18 01:54 EST    1.93 -99.99 -999 -999 -999 -99.9 -99.9 -999.9 -9.9 -9.999 -99.9 -99.99 -9.99
2019/11/18 02:00 EST    1.83 -99.99 -999 -999 -999 -99.9 -99.9 -999.9 -9.9 -9.999 -99.9 -99.99 -9.99
2019/11/18 02:06 EST    1.72 -99.99 -999 -999 -999 -99.9 -99.9 -999.9 -9.9 -9.999 -99.9 -99.99 -9.99
2019/11/18 02:12 EST    1.61 -99.99 -999 -999 -999 -99.9 -99.9 -999.9 -9.9 -9.999 -99.9 -99.99 -9.99
2019/11/18 02:18 EST    1.51 -99.99 -999 -999 -999 -99.9 -99.9 -999.9 -9.9 -9.999 -99.9 -99.99 -9.99
2019/11/18 02:24 EST    1.41 -99.99 -999 -999 -999 -99.9 -99.9 -999.9 -9.9 -9.999 -99.9 -99.99 -9.99
2019/11/18 02:30 EST    1.31 -99.99 -999 -999 -999 -99.9 -99.9 -999.9 -9.9 -9.999 -99.9 -99.99 -9.99
2019/11/18 02:36 EST    1.21 -99.99 -999 -999 -999 -99.9 -99.9 -999.9 -9.9 -9.999 -99.9 -99.99 -9.99
2019/11/18 02:42 EST    1.11 -99.99 -999 -999 -999 -99.9 -99.9 -999.9 -9.9 -9.999 -99.9 -99.99 -9.99
2019/11/18 02:48 EST    1.02 -99.99 -999 -999 -999 -99.9 -99.9 -999.9 -9.9 -9.999 -99.9 -99.99 -9.99
2019/11/18 02:54 EST    0.93 -99.99 -999 -999 -999 -99.9 -99.9 -999.9 -9.9 -9.999 -99.9 -99.99 -9.99
2019/11/18 03:00 EST    0.84 -99.99 -999 -999 -999 -99.9 -99.9 -999.9 -9.9 -9.999 -99.9 -99.99 -9.99
2019/11/18 03:06 EST    0.76 -99.99 -999 -999 -999 -99.9 -99.9 -999.9 -9.9 -9.999 -99.9 -99.99 -9.99
2019/11/18 03:12 EST    0.68 -99.99 -999 -999 -999 -99.9 -99.9 -999.9 -9.9 -9.999 -99.9 -99.99 -9.99
2019/11/18 03:18 EST    0.61 -99.99 -999 -999 -999 -99.9 -99.9 -999.9 -9.9 -9.999 -99.9 -99.99 -9.99
2019/11/18 03:24 EST    0.54 -99.99 -999 -999 -999 -99.9 -99.9 -999.9 -9.9 -9.999 -99.9 -99.99 -9.99
2019/11/18 03:30 EST    0.48 -99.99 -999 -999 -999 -99.9 -99.9 -999.9 -9.9 -9.999 -99.9 -99.99 -9.99
2019/11/18 03:36 EST    0.42 -99.99 -999 -999 -999 -99.9 -99.9 -999.9 -9.9 -9.999 -99.9 -99.99 -9.99
2019/11/18 03:42 EST    0.37 -99.99 -999 -999 -999 -99.9 -99.9 -999.9 -9.9 -9.999 -99.9 -99.99 -9.99
2019/11/18 03:48 EST    0.32 -99.99 -999 -999 -999 -99.9 -99.9 -999.9 -9.9 -9.999 -99.9 -99.99 -9.99
2019/11/18 03:54 EST    0.28 -99.99 -999 -999 -999 -99.9 -99.9 -999.9 -9.9 -9.999 -99.9 -99.99 -9.99
2019/11/18 04:00 EST    0.24 -99.99 -999 -999 -999 -99.9 -99.9 -999.9 -9.9 -9.999 -99.9 -99.99 -9.99
2019/11/18 04:06 EST    0.21 -99.99 -999 -999 -999 -99.9 -99.9 -999.9 -9.9 -9.999 -99.9 -99.99 -9.99
2019/11/18 04:12 EST    0.19 -99.99 -999 -999 -999 -99.9 -99.9 -999.9 -9.9 -9.999 -99.9 -99.99 -9.99
2019/11/18 04:18 EST    0.17 -99.99 -999 -999 -999 -99.9 -99.9 -999.9 -9.9 -9.999 -99.9 -99.99 -9.99
2019/11/18 04:24 EST    0.16 -99.99 -999 -999 -999 -99.9 -99.9 -999.9 -9.9 -9.999 -99.9 -99.99 -9.99
2019/11/18 04:30 EST    0.16 -99.99 -999 -999 -999 -99.9 -99.9 -999.9 -9.9 -9.999 -99.9 -99.99 -9.99
2019/11/18 04:36 EST    0.16 -99.99 -999 -999 -999 -99.9 -99.9 -999.9 -9.9 -9.999 -99.9 -99.99 -9.99
2019/11/18 04:42 EST    0.16 -99.99 -999 -999 -999 -99.9 -99.9 -999.9 -9.9 -9.999 -99.9 -99.99 -9.99
2019/11/18 04:48 EST    0.17 -99.99 -999 -999 -999 -99.9 -99.9 -999.9 -9.9 -9.999 -99.9 -99.99 -9.99
2019/11/18 04:54 EST    0.19 -99.99 -999 -999 -999 -99.9 -99.9 -999.9 -9.9 -9.999 -99.9 -99.99 -9.99
2019/11/18 05:00 EST    0.21 -99.99 -999 -999 -999 -99.9 -99.9 -999.9 -9.9 -9.999 -99.9 -99.99 -9.99
2019/11/18 05:06 EST    0.23 -99.99 -999 -999 -999 -99.9 -99.9 -999.9 -9.9 -9.999 -99.9 -99.99 -9.99
2019/11/18 05:12 EST    0.26 -99.99 -999 -999 -999 -99.9 -99.9 -999.9 -9.9 -9.999 -99.9 -99.99 -9.99
2019/11/18 05:18 EST    0.29 -99.99 -999 -999 -999 -99.9 -99.9 -999.9 -9.9 -9.999 -99.9 -99.99 -9.99
2019/11/18 05:24 EST    0.33 -99.99 -999 -999 -999 -99.9 -99.9 -999.9 -9.9 -9.999 -99.9 -99.99 -9.99
2019/11/18 05:30 EST    0.37 -99.99 -999 -999 -999 -99.9 -99.9 -999.9 -9.9 -9.999 -99.9 -99.99 -9.99
2019/11/18 05:36 EST    0.41 -99.99 -999 -999 -999 -99.9 -99.9 -999.9 -9.9 -9.999 -99.9 -99.99 -9.99
2019/11/18 05:42 EST    0.45 -99.99 -999 -999 -999 -99.9 -99.9 -999.9 -9.9 -9.999 -99.9 -99.99 -9.99
2019/11/18 05:48 EST    0.50 -99.99 -999 -999 -999 -99.9 -99.9 -999.9 -9.9 -9.999 -99.9 -99.99 -9.99
2019/11/18 05:54 EST    0.55 -99.99 -999 -999 -999 -99.9 -99.9 -999.9 -9.9 -9.999 -99.9 -99.99 -9.99
2019/11/18 06:00 EST    0.60 -99.99 -999 -999 -999 -99.9 -99.9 -999.9 -9.9 -9.999 -99.9 -99.99 -9.99
2019/11/18 06:06 EST    0.65 -99.99 -999 -999 -999 -99.9 -99.9 -999.9 -9.9 -9.999 -99.9 -99.99 -9.99
2019/11/18 06:12 EST    0.70 -99.99 -999 -999 -999 -99.9 -99.9 -999.9 -9.9 -9.999 -99.9 -99.99 -9.99
2019/11/18 06:18 EST    0.76 -99.99 -999 -999 -999 -99.9 -99.9 -999.9 -9.9 -9.999 -99.9 -99.99 -9.99
2019/11/18 06:24 EST    0.81 -99.99 -999 -999 -999 -99.9 -99.9 -999.9 -9.9 -9.999 -99.9 -99.99 -9.99
2019/11/18 06:30 EST    0.86 -99.99 -999 -999 -999 -99.9 -99.9 -999.9 -9.9 -9.999 -99.9 -99.99 -9.99
2019/11/18 06:36 EST    0.91 -99.99 -999 -999 -999 -99.9 -99.9 -999.9 -9.9 -9.999 -99.9 -99.99 -9.99
2019/11/18 06:42 EST    0.97 -99.99 -999 -999 -999 -99.9 -99.9 -999.9 -9.9 -9.999 -99.9 -99.99 -9.99
2019/11/18 06:48 EST    1.02 -99.99 -999 -999 -999 -99.9 -99.9 -999.9 -9.9 -9.999 -99.9 -99.99 -9.99
2019/11/18 06:54 EST    1.07 -99.99 -999 -999 -999 -99.9 -99.9 -999.9 -9.9 -9.999 -99.9 -99.99 -9.99
2019/11/18 07:00 EST    1.12 -99.99 -999 -999 -999 -99.9 -99.9 -999.9 -9.9 -9.999 -99.9 -99.99 -9.99
2019/11/18 07:06 EST    1.17 -99.99 -999 -999 -999 -99.9 -99.9 -999.9 -9.9 -9.999 -99.9 -99.99 -9.99
2019/11/18 07:12 EST    1.22 -99.99 -999 -999 -999 -99.9 -99.9 -999.9 -9.9 -9.999 -99.9 -99.99 -9.99
2019/11/18 07:18 EST    1.27 -99.99 -999 -999 -999 -99.9 -99.9 -999.9 -9.9 -9.999 -99.9 -99.99 -9.99